sensor_id;sensor_type;location;lat;lon;timestamp;P1;durP1;ratioP1;P2;durP2;ratioP2
48875;SDS011;34689;51.644;5.618;2023-03-19T00:00:07;0.68;;;0.35;;
48875;SDS011;34689;51.644;5.618;2023-03-19T00:02:34;1.20;;;0.30;;
48875;SDS011;34689;51.644;5.618;2023-03-19T00:05:00;2.28;;;0.68;;
48875;SDS011;34689;51.644;5.618;2023-03-19T00:07:26;0.32;;;0.30;;
48875;SDS011;34689;51.644;5.618;2023-03-19T00:09:52;0.32;;;0.20;;
48875;SDS011;34689;51.644;5.618;2023-03-19T00:12:18;0.43;;;0.20;;
48875;SDS011;34689;51.644;5.618;2023-03-19T00:14:44;0.93;;;0.40;;
48875;SDS011;34689;51.644;5.618;2023-03-19T00:17:09;0.43;;;0.28;;
48875;SDS011;34689;51.644;5.618;2023-03-19T00:19:35;0.55;;;0.38;;
48875;SDS011;34689;51.644;5.618;2023-03-19T00:22:01;0.75;;;0.30;;
48875;SDS011;34689;51.644;5.618;2023-03-19T00:24:27;0.93;;;0.20;;
48875;SDS011;34689;51.644;5.618;2023-03-19T00:26:53;0.73;;;0.47;;
48875;SDS011;34689;51.644;5.618;2023-03-19T00:29:19;0.75;;;0.40;;
48875;SDS011;34689;51.644;5.618;2023-03-19T00:31:47;2.25;;;1.00;;
48875;SDS011;34689;51.644;5.618;2023-03-19T00:34:15;2.05;;;0.90;;
48875;SDS011;34689;51.644;5.618;2023-03-19T00:36:42;0.45;;;0.45;;
48875;SDS011;34689;51.644;5.618;2023-03-19T00:39:09;0.95;;;0.55;;
48875;SDS011;34689;51.644;5.618;2023-03-19T00:41:35;0.65;;;0.40;;
48875;SDS011;34689;51.644;5.618;2023-03-19T00:44:01;0.85;;;0.50;;
48875;SDS011;34689;51.644;5.618;2023-03-19T00:46:28;0.63;;;0.30;;
48875;SDS011;34689;51.644;5.618;2023-03-19T00:48:53;0.90;;;0.40;;
48875;SDS011;34689;51.644;5.618;2023-03-19T00:51:22;0.98;;;0.43;;
48875;SDS011;34689;51.644;5.618;2023-03-19T00:53:49;0.93;;;0.50;;
48875;SDS011;34689;51.644;5.618;2023-03-19T00:56:15;0.93;;;0.45;;
48875;SDS011;34689;51.644;5.618;2023-03-19T00:58:45;0.65;;;0.47;;
48875;SDS011;34689;51.644;5.618;2023-03-19T01:01:14;0.65;;;0.47;;
48875;SDS011;34689;51.644;5.618;2023-03-19T01:03:43;0.57;;;0.43;;
48875;SDS011;34689;51.644;5.618;2023-03-19T01:06:09;0.77;;;0.45;;
48875;SDS011;34689;51.644;5.618;2023-03-19T01:08:36;0.68;;;0.47;;
48875;SDS011;34689;51.644;5.618;2023-03-19T01:11:08;0.85;;;0.57;;
48875;SDS011;34689;51.644;5.618;2023-03-19T01:13:39;0.60;;;0.50;;
48875;SDS011;34689;51.644;5.618;2023-03-19T01:16:08;0.40;;;0.40;;
48875;SDS011;34689;51.644;5.618;2023-03-19T01:18:34;0.95;;;0.52;;
48875;SDS011;34689;51.644;5.618;2023-03-19T01:21:00;0.73;;;0.60;;
48875;SDS011;34689;51.644;5.618;2023-03-19T01:23:26;1.55;;;0.77;;
48875;SDS011;34689;51.644;5.618;2023-03-19T01:25:52;0.75;;;0.60;;
48875;SDS011;34689;51.644;5.618;2023-03-19T01:28:21;2.88;;;0.80;;
48875;SDS011;34689;51.644;5.618;2023-03-19T01:30:47;1.63;;;0.50;;
48875;SDS011;34689;51.644;5.618;2023-03-19T01:33:15;1.00;;;0.60;;
48875;SDS011;34689;51.644;5.618;2023-03-19T01:35:43;1.25;;;0.70;;
48875;SDS011;34689;51.644;5.618;2023-03-19T01:38:11;1.55;;;0.68;;
48875;SDS011;34689;51.644;5.618;2023-03-19T01:40:42;0.60;;;0.60;;
48875;SDS011;34689;51.644;5.618;2023-03-19T01:45:39;0.60;;;0.50;;
48875;SDS011;34689;51.644;5.618;2023-03-19T01:48:08;0.98;;;0.60;;
48875;SDS011;34689;51.644;5.618;2023-03-19T01:50:45;1.48;;;0.73;;
48875;SDS011;34689;51.644;5.618;2023-03-19T01:53:15;1.17;;;0.60;;
48875;SDS011;34689;51.644;5.618;2023-03-19T01:55:42;1.17;;;0.63;;
48875;SDS011;34689;51.644;5.618;2023-03-19T01:58:11;0.70;;;0.50;;
48875;SDS011;34689;51.644;5.618;2023-03-19T02:00:37;2.25;;;1.10;;
48875;SDS011;34689;51.644;5.618;2023-03-19T02:03:04;0.60;;;0.50;;
48875;SDS011;34689;51.644;5.618;2023-03-19T02:05:30;2.15;;;0.73;;
48875;SDS011;34689;51.644;5.618;2023-03-19T02:07:59;0.95;;;0.63;;
48875;SDS011;34689;51.644;5.618;2023-03-19T02:10:29;1.38;;;0.88;;
48875;SDS011;34689;51.644;5.618;2023-03-19T02:12:55;0.70;;;0.50;;
48875;SDS011;34689;51.644;5.618;2023-03-19T02:15:20;1.25;;;0.55;;
48875;SDS011;34689;51.644;5.618;2023-03-19T02:17:46;0.77;;;0.52;;
48875;SDS011;34689;51.644;5.618;2023-03-19T02:22:40;1.33;;;0.57;;
48875;SDS011;34689;51.644;5.618;2023-03-19T02:25:18;2.33;;;0.82;;
48875;SDS011;34689;51.644;5.618;2023-03-19T02:27:51;3.72;;;0.82;;
48875;SDS011;34689;51.644;5.618;2023-03-19T02:32:45;2.47;;;1.20;;
48875;SDS011;34689;51.644;5.618;2023-03-19T02:35:11;1.58;;;0.80;;
48875;SDS011;34689;51.644;5.618;2023-03-19T02:37:37;1.15;;;0.70;;
48875;SDS011;34689;51.644;5.618;2023-03-19T02:42:32;2.10;;;0.60;;
48875;SDS011;34689;51.644;5.618;2023-03-19T02:44:58;1.60;;;0.90;;
48875;SDS011;34689;51.644;5.618;2023-03-19T02:47:24;1.08;;;0.77;;
48875;SDS011;34689;51.644;5.618;2023-03-19T02:49:52;2.25;;;1.00;;
48875;SDS011;34689;51.644;5.618;2023-03-19T02:52:19;1.00;;;0.70;;
48875;SDS011;34689;51.644;5.618;2023-03-19T02:54:45;1.25;;;0.80;;
48875;SDS011;34689;51.644;5.618;2023-03-19T02:57:12;1.10;;;0.70;;
48875;SDS011;34689;51.644;5.618;2023-03-19T02:59:38;1.25;;;0.82;;
48875;SDS011;34689;51.644;5.618;2023-03-19T03:02:04;1.48;;;1.00;;
48875;SDS011;34689;51.644;5.618;2023-03-19T03:04:30;1.20;;;0.88;;
48875;SDS011;34689;51.644;5.618;2023-03-19T03:06:57;1.25;;;1.00;;
48875;SDS011;34689;51.644;5.618;2023-03-19T03:09:23;2.30;;;0.77;;
48875;SDS011;34689;51.644;5.618;2023-03-19T03:11:49;1.50;;;1.15;;
48875;SDS011;34689;51.644;5.618;2023-03-19T03:14:15;2.28;;;1.27;;
48875;SDS011;34689;51.644;5.618;2023-03-19T03:16:40;1.35;;;1.10;;
48875;SDS011;34689;51.644;5.618;2023-03-19T03:19:06;3.42;;;1.15;;
48875;SDS011;34689;51.644;5.618;2023-03-19T03:21:32;2.28;;;1.27;;
48875;SDS011;34689;51.644;5.618;2023-03-19T03:23:58;2.38;;;1.05;;
48875;SDS011;34689;51.644;5.618;2023-03-19T03:26:24;2.55;;;1.42;;
48875;SDS011;34689;51.644;5.618;2023-03-19T03:28:49;1.75;;;1.20;;
48875;SDS011;34689;51.644;5.618;2023-03-19T03:31:16;1.80;;;1.00;;
48875;SDS011;34689;51.644;5.618;2023-03-19T03:33:43;1.77;;;1.02;;
48875;SDS011;34689;51.644;5.618;2023-03-19T03:36:09;2.88;;;1.40;;
48875;SDS011;34689;51.644;5.618;2023-03-19T03:38:36;2.03;;;1.08;;
48875;SDS011;34689;51.644;5.618;2023-03-19T03:41:02;1.77;;;1.10;;
48875;SDS011;34689;51.644;5.618;2023-03-19T03:43:28;3.97;;;1.63;;
48875;SDS011;34689;51.644;5.618;2023-03-19T03:45:54;2.60;;;1.85;;
48875;SDS011;34689;51.644;5.618;2023-03-19T03:48:20;2.67;;;1.10;;
48875;SDS011;34689;51.644;5.618;2023-03-19T03:50:48;1.52;;;1.38;;
48875;SDS011;34689;51.644;5.618;2023-03-19T03:53:14;1.80;;;1.15;;
48875;SDS011;34689;51.644;5.618;2023-03-19T03:55:40;4.57;;;1.60;;
48875;SDS011;34689;51.644;5.618;2023-03-19T03:58:07;2.60;;;1.30;;
48875;SDS011;34689;51.644;5.618;2023-03-19T04:00:33;1.60;;;1.30;;
48875;SDS011;34689;51.644;5.618;2023-03-19T04:02:59;2.25;;;1.52;;
48875;SDS011;34689;51.644;5.618;2023-03-19T04:05:25;1.67;;;1.42;;
48875;SDS011;34689;51.644;5.618;2023-03-19T04:07:51;2.33;;;1.40;;
48875;SDS011;34689;51.644;5.618;2023-03-19T04:10:17;2.13;;;1.55;;
48875;SDS011;34689;51.644;5.618;2023-03-19T04:12:43;1.38;;;1.20;;
48875;SDS011;34689;51.644;5.618;2023-03-19T04:15:12;2.20;;;1.30;;
48875;SDS011;34689;51.644;5.618;2023-03-19T04:17:38;2.25;;;1.40;;
48875;SDS011;34689;51.644;5.618;2023-03-19T04:20:04;2.55;;;1.30;;
48875;SDS011;34689;51.644;5.618;2023-03-19T04:22:31;2.33;;;1.75;;
48875;SDS011;34689;51.644;5.618;2023-03-19T04:24:57;4.05;;;1.95;;
48875;SDS011;34689;51.644;5.618;2023-03-19T04:27:23;1.70;;;1.35;;
48875;SDS011;34689;51.644;5.618;2023-03-19T04:29:49;2.88;;;1.85;;
48875;SDS011;34689;51.644;5.618;2023-03-19T04:32:15;1.90;;;1.30;;
48875;SDS011;34689;51.644;5.618;2023-03-19T04:34:40;2.15;;;1.50;;
48875;SDS011;34689;51.644;5.618;2023-03-19T04:37:06;1.85;;;1.48;;
48875;SDS011;34689;51.644;5.618;2023-03-19T04:39:34;3.22;;;1.55;;
48875;SDS011;34689;51.644;5.618;2023-03-19T04:42:00;2.80;;;1.60;;
48875;SDS011;34689;51.644;5.618;2023-03-19T04:44:28;3.50;;;1.90;;
48875;SDS011;34689;51.644;5.618;2023-03-19T04:46:54;2.55;;;1.70;;
48875;SDS011;34689;51.644;5.618;2023-03-19T04:49:20;1.25;;;0.95;;
48875;SDS011;34689;51.644;5.618;2023-03-19T04:51:46;1.20;;;1.10;;
48875;SDS011;34689;51.644;5.618;2023-03-19T04:54:12;2.17;;;1.60;;
48875;SDS011;34689;51.644;5.618;2023-03-19T04:56:37;2.10;;;1.52;;
48875;SDS011;34689;51.644;5.618;2023-03-19T04:59:03;2.17;;;1.45;;
48875;SDS011;34689;51.644;5.618;2023-03-19T05:01:29;2.22;;;1.33;;
48875;SDS011;34689;51.644;5.618;2023-03-19T05:03:55;2.22;;;1.48;;
48875;SDS011;34689;51.644;5.618;2023-03-19T05:06:21;2.50;;;1.45;;
48875;SDS011;34689;51.644;5.618;2023-03-19T05:08:46;1.50;;;1.20;;
48875;SDS011;34689;51.644;5.618;2023-03-19T05:11:12;2.22;;;1.35;;
48875;SDS011;34689;51.644;5.618;2023-03-19T05:13:38;2.45;;;1.25;;
48875;SDS011;34689;51.644;5.618;2023-03-19T05:16:04;2.67;;;1.77;;
48875;SDS011;34689;51.644;5.618;2023-03-19T05:18:30;2.30;;;1.50;;
48875;SDS011;34689;51.644;5.618;2023-03-19T05:20:57;2.17;;;1.60;;
48875;SDS011;34689;51.644;5.618;2023-03-19T05:23:23;2.22;;;1.13;;
48875;SDS011;34689;51.644;5.618;2023-03-19T05:25:49;2.42;;;2.10;;
48875;SDS011;34689;51.644;5.618;2023-03-19T05:28:16;1.50;;;1.27;;
48875;SDS011;34689;51.644;5.618;2023-03-19T05:30:42;2.45;;;1.27;;
48875;SDS011;34689;51.644;5.618;2023-03-19T05:33:11;1.77;;;1.20;;
48875;SDS011;34689;51.644;5.618;2023-03-19T05:35:36;2.45;;;1.13;;
48875;SDS011;34689;51.644;5.618;2023-03-19T05:38:02;1.77;;;1.38;;
48875;SDS011;34689;51.644;5.618;2023-03-19T05:40:28;2.95;;;1.65;;
48875;SDS011;34689;51.644;5.618;2023-03-19T05:42:54;1.63;;;1.40;;
48875;SDS011;34689;51.644;5.618;2023-03-19T05:45:19;1.92;;;1.40;;
48875;SDS011;34689;51.644;5.618;2023-03-19T05:47:46;1.40;;;1.10;;
48875;SDS011;34689;51.644;5.618;2023-03-19T05:50:16;1.75;;;1.30;;
48875;SDS011;34689;51.644;5.618;2023-03-19T05:52:42;1.58;;;1.20;;
48875;SDS011;34689;51.644;5.618;2023-03-19T05:55:08;1.23;;;0.93;;
48875;SDS011;34689;51.644;5.618;2023-03-19T05:57:35;3.47;;;1.63;;
48875;SDS011;34689;51.644;5.618;2023-03-19T06:00:01;3.33;;;1.30;;
48875;SDS011;34689;51.644;5.618;2023-03-19T06:02:28;2.65;;;1.35;;
48875;SDS011;34689;51.644;5.618;2023-03-19T06:04:54;1.77;;;1.40;;
48875;SDS011;34689;51.644;5.618;2023-03-19T06:07:20;1.73;;;1.08;;
48875;SDS011;34689;51.644;5.618;2023-03-19T06:09:46;1.75;;;1.33;;
48875;SDS011;34689;51.644;5.618;2023-03-19T06:12:11;3.67;;;1.42;;
48875;SDS011;34689;51.644;5.618;2023-03-19T06:14:37;2.53;;;1.52;;
48875;SDS011;34689;51.644;5.618;2023-03-19T06:17:03;2.92;;;1.52;;
48875;SDS011;34689;51.644;5.618;2023-03-19T06:19:28;2.45;;;1.80;;
48875;SDS011;34689;51.644;5.618;2023-03-19T06:21:54;2.97;;;1.83;;
48875;SDS011;34689;51.644;5.618;2023-03-19T06:24:20;1.90;;;1.20;;
48875;SDS011;34689;51.644;5.618;2023-03-19T06:26:48;2.28;;;1.20;;
48875;SDS011;34689;51.644;5.618;2023-03-19T06:29:13;1.60;;;1.35;;
48875;SDS011;34689;51.644;5.618;2023-03-19T06:31:39;1.70;;;1.20;;
48875;SDS011;34689;51.644;5.618;2023-03-19T06:34:05;2.90;;;1.38;;
48875;SDS011;34689;51.644;5.618;2023-03-19T06:36:35;2.70;;;2.00;;
48875;SDS011;34689;51.644;5.618;2023-03-19T06:39:01;2.92;;;1.90;;
48875;SDS011;34689;51.644;5.618;2023-03-19T06:41:27;3.72;;;1.75;;
48875;SDS011;34689;51.644;5.618;2023-03-19T06:43:52;1.73;;;1.23;;
48875;SDS011;34689;51.644;5.618;2023-03-19T06:46:18;2.60;;;1.60;;
48875;SDS011;34689;51.644;5.618;2023-03-19T06:48:44;2.42;;;1.38;;
48875;SDS011;34689;51.644;5.618;2023-03-19T06:51:09;2.90;;;2.13;;
48875;SDS011;34689;51.644;5.618;2023-03-19T06:53:35;3.08;;;2.10;;
48875;SDS011;34689;51.644;5.618;2023-03-19T06:56:01;2.83;;;2.05;;
48875;SDS011;34689;51.644;5.618;2023-03-19T06:58:27;5.60;;;2.22;;
48875;SDS011;34689;51.644;5.618;2023-03-19T07:00:53;3.67;;;2.10;;
48875;SDS011;34689;51.644;5.618;2023-03-19T07:03:18;1.83;;;1.42;;
48875;SDS011;34689;51.644;5.618;2023-03-19T07:05:48;2.53;;;2.05;;
48875;SDS011;34689;51.644;5.618;2023-03-19T07:08:15;3.15;;;1.95;;
48875;SDS011;34689;51.644;5.618;2023-03-19T07:10:41;3.58;;;2.38;;
48875;SDS011;34689;51.644;5.618;2023-03-19T07:13:07;3.95;;;2.42;;
48875;SDS011;34689;51.644;5.618;2023-03-19T07:15:33;2.75;;;2.15;;
48875;SDS011;34689;51.644;5.618;2023-03-19T07:18:00;3.50;;;2.10;;
48875;SDS011;34689;51.644;5.618;2023-03-19T07:20:26;3.22;;;1.80;;
48875;SDS011;34689;51.644;5.618;2023-03-19T07:22:54;3.00;;;2.25;;
48875;SDS011;34689;51.644;5.618;2023-03-19T07:25:20;2.50;;;1.90;;
48875;SDS011;34689;51.644;5.618;2023-03-19T07:27:45;3.10;;;2.28;;
48875;SDS011;34689;51.644;5.618;2023-03-19T07:30:14;5.40;;;3.45;;
48875;SDS011;34689;51.644;5.618;2023-03-19T07:32:40;3.17;;;2.03;;
48875;SDS011;34689;51.644;5.618;2023-03-19T07:35:07;4.20;;;2.40;;
48875;SDS011;34689;51.644;5.618;2023-03-19T07:37:34;3.28;;;2.63;;
48875;SDS011;34689;51.644;5.618;2023-03-19T07:40:00;5.53;;;3.78;;
48875;SDS011;34689;51.644;5.618;2023-03-19T07:42:26;5.70;;;3.40;;
48875;SDS011;34689;51.644;5.618;2023-03-19T07:44:52;5.00;;;3.28;;
48875;SDS011;34689;51.644;5.618;2023-03-19T07:47:17;5.10;;;3.38;;
48875;SDS011;34689;51.644;5.618;2023-03-19T07:49:45;4.28;;;2.78;;
48875;SDS011;34689;51.644;5.618;2023-03-19T07:52:11;5.45;;;3.28;;
48875;SDS011;34689;51.644;5.618;2023-03-19T07:54:38;5.03;;;3.10;;
48875;SDS011;34689;51.644;5.618;2023-03-19T07:57:04;6.03;;;3.28;;
48875;SDS011;34689;51.644;5.618;2023-03-19T07:59:30;5.38;;;3.25;;
48875;SDS011;34689;51.644;5.618;2023-03-19T08:01:56;5.50;;;3.10;;
48875;SDS011;34689;51.644;5.618;2023-03-19T08:04:21;5.53;;;2.92;;
48875;SDS011;34689;51.644;5.618;2023-03-19T08:06:49;5.60;;;3.00;;
48875;SDS011;34689;51.644;5.618;2023-03-19T08:09:15;4.60;;;2.80;;
48875;SDS011;34689;51.644;5.618;2023-03-19T08:11:40;4.35;;;2.33;;
48875;SDS011;34689;51.644;5.618;2023-03-19T08:14:06;4.72;;;2.22;;
48875;SDS011;34689;51.644;5.618;2023-03-19T08:16:32;5.68;;;3.10;;
48875;SDS011;34689;51.644;5.618;2023-03-19T08:18:57;4.82;;;2.30;;
48875;SDS011;34689;51.644;5.618;2023-03-19T08:21:23;5.47;;;2.55;;
48875;SDS011;34689;51.644;5.618;2023-03-19T08:23:49;5.15;;;2.90;;
48875;SDS011;34689;51.644;5.618;2023-03-19T08:26:15;4.50;;;2.35;;
48875;SDS011;34689;51.644;5.618;2023-03-19T08:28:49;6.00;;;2.20;;
48875;SDS011;34689;51.644;5.618;2023-03-19T08:31:19;3.47;;;2.22;;
48875;SDS011;34689;51.644;5.618;2023-03-19T08:33:44;3.30;;;2.17;;
48875;SDS011;34689;51.644;5.618;2023-03-19T08:36:12;4.45;;;2.15;;
48875;SDS011;34689;51.644;5.618;2023-03-19T08:38:38;3.22;;;1.80;;
48875;SDS011;34689;51.644;5.618;2023-03-19T08:41:04;3.00;;;2.13;;
48875;SDS011;34689;51.644;5.618;2023-03-19T08:43:31;3.40;;;2.22;;
48875;SDS011;34689;51.644;5.618;2023-03-19T08:46:00;5.40;;;2.50;;
48875;SDS011;34689;51.644;5.618;2023-03-19T08:48:27;4.38;;;2.42;;
48875;SDS011;34689;51.644;5.618;2023-03-19T08:50:57;4.00;;;2.45;;
48875;SDS011;34689;51.644;5.618;2023-03-19T08:53:26;5.28;;;2.58;;
48875;SDS011;34689;51.644;5.618;2023-03-19T08:55:53;7.60;;;3.17;;
48875;SDS011;34689;51.644;5.618;2023-03-19T08:58:20;5.65;;;2.45;;
48875;SDS011;34689;51.644;5.618;2023-03-19T09:00:47;8.40;;;3.45;;
48875;SDS011;34689;51.644;5.618;2023-03-19T09:03:14;6.20;;;3.35;;
48875;SDS011;34689;51.644;5.618;2023-03-19T09:05:41;4.15;;;2.17;;
48875;SDS011;34689;51.644;5.618;2023-03-19T09:08:07;7.65;;;2.17;;
48875;SDS011;34689;51.644;5.618;2023-03-19T09:10:33;6.55;;;2.40;;
48875;SDS011;34689;51.644;5.618;2023-03-19T09:12:59;6.30;;;2.58;;
48875;SDS011;34689;51.644;5.618;2023-03-19T09:15:25;4.78;;;1.70;;
48875;SDS011;34689;51.644;5.618;2023-03-19T09:17:53;2.55;;;1.55;;
48875;SDS011;34689;51.644;5.618;2023-03-19T09:20:21;5.88;;;2.13;;
48875;SDS011;34689;51.644;5.618;2023-03-19T09:22:47;3.00;;;1.80;;
48875;SDS011;34689;51.644;5.618;2023-03-19T09:25:13;5.55;;;1.65;;
48875;SDS011;34689;51.644;5.618;2023-03-19T09:27:41;4.13;;;2.33;;
48875;SDS011;34689;51.644;5.618;2023-03-19T09:30:07;5.88;;;2.17;;
48875;SDS011;34689;51.644;5.618;2023-03-19T09:32:35;6.93;;;3.45;;
48875;SDS011;34689;51.644;5.618;2023-03-19T09:35:01;2.72;;;1.50;;
48875;SDS011;34689;51.644;5.618;2023-03-19T09:37:27;5.95;;;2.58;;
48875;SDS011;34689;51.644;5.618;2023-03-19T09:39:53;4.00;;;2.30;;
48875;SDS011;34689;51.644;5.618;2023-03-19T09:42:23;6.05;;;2.15;;
48875;SDS011;34689;51.644;5.618;2023-03-19T09:45:13;3.63;;;2.00;;
48875;SDS011;34689;51.644;5.618;2023-03-19T09:47:40;6.80;;;2.50;;
48875;SDS011;34689;51.644;5.618;2023-03-19T09:50:20;4.60;;;2.03;;
48875;SDS011;34689;51.644;5.618;2023-03-19T09:53:00;6.85;;;2.25;;
48875;SDS011;34689;51.644;5.618;2023-03-19T09:55:40;7.28;;;3.05;;
48875;SDS011;34689;51.644;5.618;2023-03-19T09:58:21;10.73;;;3.08;;
48875;SDS011;34689;51.644;5.618;2023-03-19T10:00:55;5.57;;;2.40;;
48875;SDS011;34689;51.644;5.618;2023-03-19T10:16:46;3.72;;;1.90;;
48875;SDS011;34689;51.644;5.618;2023-03-19T10:19:15;2.92;;;1.73;;
48875;SDS011;34689;51.644;5.618;2023-03-19T10:21:48;2.83;;;1.35;;
48875;SDS011;34689;51.644;5.618;2023-03-19T10:24:34;4.05;;;1.63;;
48875;SDS011;34689;51.644;5.618;2023-03-19T10:27:11;4.68;;;1.40;;
48875;SDS011;34689;51.644;5.618;2023-03-19T10:29:40;2.83;;;1.20;;
48875;SDS011;34689;51.644;5.618;2023-03-19T10:32:11;6.60;;;1.77;;
48875;SDS011;34689;51.644;5.618;2023-03-19T10:34:48;2.83;;;1.27;;
48875;SDS011;34689;51.644;5.618;2023-03-19T10:37:26;2.53;;;1.10;;
48875;SDS011;34689;51.644;5.618;2023-03-19T10:39:57;2.55;;;1.23;;
48875;SDS011;34689;51.644;5.618;2023-03-19T10:44:56;4.28;;;1.35;;
48875;SDS011;34689;51.644;5.618;2023-03-19T10:47:28;3.00;;;1.27;;
48875;SDS011;34689;51.644;5.618;2023-03-19T10:50:03;2.13;;;1.10;;
48875;SDS011;34689;51.644;5.618;2023-03-19T10:52:32;5.97;;;2.33;;
48875;SDS011;34689;51.644;5.618;2023-03-19T10:55:16;3.03;;;1.17;;
48875;SDS011;34689;51.644;5.618;2023-03-19T10:57:55;6.97;;;2.10;;
48875;SDS011;34689;51.644;5.618;2023-03-19T11:00:27;1.83;;;0.80;;
48875;SDS011;34689;51.644;5.618;2023-03-19T11:02:59;4.10;;;1.20;;
48875;SDS011;34689;51.644;5.618;2023-03-19T11:05:29;1.73;;;1.02;;
48875;SDS011;34689;51.644;5.618;2023-03-19T11:08:02;2.40;;;1.10;;
48875;SDS011;34689;51.644;5.618;2023-03-19T11:10:30;2.67;;;1.40;;
48875;SDS011;34689;51.644;5.618;2023-03-19T11:12:59;2.83;;;1.13;;
48875;SDS011;34689;51.644;5.618;2023-03-19T11:15:40;3.80;;;1.38;;
48875;SDS011;34689;51.644;5.618;2023-03-19T11:18:18;2.60;;;1.48;;
48875;SDS011;34689;51.644;5.618;2023-03-19T11:20:47;1.35;;;1.00;;
48875;SDS011;34689;51.644;5.618;2023-03-19T11:23:18;2.25;;;1.15;;
48875;SDS011;34689;51.644;5.618;2023-03-19T11:25:46;2.13;;;1.27;;
48875;SDS011;34689;51.644;5.618;2023-03-19T11:28:25;2.70;;;1.55;;
48875;SDS011;34689;51.644;5.618;2023-03-19T11:31:02;2.20;;;0.98;;
48875;SDS011;34689;51.644;5.618;2023-03-19T11:36:30;2.70;;;1.25;;
48875;SDS011;34689;51.644;5.618;2023-03-19T11:39:11;2.30;;;1.60;;
48875;SDS011;34689;51.644;5.618;2023-03-19T11:42:10;1.42;;;0.90;;
48875;SDS011;34689;51.644;5.618;2023-03-19T11:47:33;1.65;;;1.17;;
48875;SDS011;34689;51.644;5.618;2023-03-19T11:55:58;2.20;;;1.50;;
48875;SDS011;34689;51.644;5.618;2023-03-19T12:01:43;1.90;;;1.42;;
48875;SDS011;34689;51.644;5.618;2023-03-19T12:07:14;4.57;;;1.73;;
48875;SDS011;34689;51.644;5.618;2023-03-19T12:15:34;2.65;;;1.52;;
48875;SDS011;34689;51.644;5.618;2023-03-19T12:27:31;3.30;;;1.75;;
48875;SDS011;34689;51.644;5.618;2023-03-19T12:30:11;2.60;;;1.63;;
48875;SDS011;34689;51.644;5.618;2023-03-19T12:32:48;2.65;;;1.60;;
48875;SDS011;34689;51.644;5.618;2023-03-19T12:35:21;1.98;;;1.45;;
48875;SDS011;34689;51.644;5.618;2023-03-19T12:38:04;2.50;;;1.77;;
48875;SDS011;34689;51.644;5.618;2023-03-19T12:40:59;3.50;;;1.92;;
48875;SDS011;34689;51.644;5.618;2023-03-19T12:43:36;3.08;;;1.95;;
48875;SDS011;34689;51.644;5.618;2023-03-19T12:46:12;3.60;;;2.38;;
48875;SDS011;34689;51.644;5.618;2023-03-19T12:48:47;2.97;;;2.00;;
48875;SDS011;34689;51.644;5.618;2023-03-19T12:51:24;3.90;;;1.83;;
48875;SDS011;34689;51.644;5.618;2023-03-19T12:53:59;4.78;;;2.92;;
48875;SDS011;34689;51.644;5.618;2023-03-19T12:59:04;4.43;;;2.70;;
48875;SDS011;34689;51.644;5.618;2023-03-19T13:01:40;4.65;;;2.85;;
48875;SDS011;34689;51.644;5.618;2023-03-19T13:04:20;3.75;;;2.67;;
48875;SDS011;34689;51.644;5.618;2023-03-19T13:06:55;4.10;;;2.70;;
48875;SDS011;34689;51.644;5.618;2023-03-19T13:12:26;4.18;;;2.67;;
48875;SDS011;34689;51.644;5.618;2023-03-19T13:14:57;3.35;;;2.50;;
48875;SDS011;34689;51.644;5.618;2023-03-19T13:17:51;4.43;;;2.83;;
48875;SDS011;34689;51.644;5.618;2023-03-19T13:23:03;4.68;;;3.00;;
48875;SDS011;34689;51.644;5.618;2023-03-19T13:25:41;6.45;;;3.47;;
48875;SDS011;34689;51.644;5.618;2023-03-19T13:28:16;4.25;;;3.45;;
48875;SDS011;34689;51.644;5.618;2023-03-19T13:31:05;7.00;;;3.60;;
48875;SDS011;34689;51.644;5.618;2023-03-19T13:33:47;3.97;;;3.00;;
48875;SDS011;34689;51.644;5.618;2023-03-19T13:36:27;3.97;;;2.85;;
48875;SDS011;34689;51.644;5.618;2023-03-19T13:38:54;5.88;;;3.33;;
48875;SDS011;34689;51.644;5.618;2023-03-19T13:43:57;4.40;;;3.03;;
48875;SDS011;34689;51.644;5.618;2023-03-19T13:48:53;4.32;;;3.42;;
48875;SDS011;34689;51.644;5.618;2023-03-19T13:51:23;5.82;;;3.58;;
48875;SDS011;34689;51.644;5.618;2023-03-19T13:56:28;6.03;;;3.80;;
48875;SDS011;34689;51.644;5.618;2023-03-19T14:01:42;3.58;;;2.83;;
48875;SDS011;34689;51.644;5.618;2023-03-19T14:04:18;5.55;;;3.47;;
48875;SDS011;34689;51.644;5.618;2023-03-19T14:06:57;6.37;;;4.03;;
48875;SDS011;34689;51.644;5.618;2023-03-19T14:12:10;5.43;;;3.78;;
48875;SDS011;34689;51.644;5.618;2023-03-19T14:17:32;7.43;;;4.88;;
48875;SDS011;34689;51.644;5.618;2023-03-19T14:20:21;5.93;;;4.30;;
48875;SDS011;34689;51.644;5.618;2023-03-19T14:28:41;4.47;;;2.65;;
48875;SDS011;34689;51.644;5.618;2023-03-19T14:31:20;5.70;;;2.65;;
48875;SDS011;34689;51.644;5.618;2023-03-19T14:34:33;3.80;;;2.75;;
48875;SDS011;34689;51.644;5.618;2023-03-19T14:37:20;4.47;;;2.72;;
48875;SDS011;34689;51.644;5.618;2023-03-19T14:39:29;4.13;;;2.73;;
48875;SDS011;34689;51.644;5.618;2023-03-19T14:48:05;8.27;;;4.18;;
48875;SDS011;34689;51.644;5.618;2023-03-19T14:56:18;4.13;;;2.80;;
48875;SDS011;34689;51.644;5.618;2023-03-19T14:58:53;3.47;;;2.40;;
48875;SDS011;34689;51.644;5.618;2023-03-19T15:01:22;3.63;;;2.65;;
48875;SDS011;34689;51.644;5.618;2023-03-19T15:03:54;3.45;;;2.13;;
48875;SDS011;34689;51.644;5.618;2023-03-19T15:06:24;4.05;;;3.15;;
48875;SDS011;34689;51.644;5.618;2023-03-19T15:09:01;2.92;;;2.22;;
48875;SDS011;34689;51.644;5.618;2023-03-19T15:17:18;3.95;;;2.45;;
48875;SDS011;34689;51.644;5.618;2023-03-19T15:19:48;4.70;;;2.28;;
48875;SDS011;34689;51.644;5.618;2023-03-19T15:22:33;6.53;;;2.75;;
48875;SDS011;34689;51.644;5.618;2023-03-19T15:25:06;4.90;;;2.80;;
48875;SDS011;34689;51.644;5.618;2023-03-19T15:27:35;4.32;;;2.85;;
48875;SDS011;34689;51.644;5.618;2023-03-19T15:30:01;3.17;;;2.33;;
48875;SDS011;34689;51.644;5.618;2023-03-19T15:32:35;4.50;;;2.72;;
48875;SDS011;34689;51.644;5.618;2023-03-19T15:35:03;4.50;;;3.05;;
48875;SDS011;34689;51.644;5.618;2023-03-19T15:37:31;4.47;;;2.90;;
48875;SDS011;34689;51.644;5.618;2023-03-19T15:40:02;4.45;;;2.58;;
48875;SDS011;34689;51.644;5.618;2023-03-19T15:42:34;8.50;;;3.45;;
48875;SDS011;34689;51.644;5.618;2023-03-19T15:45:08;4.68;;;2.53;;
48875;SDS011;34689;51.644;5.618;2023-03-19T15:48:14;3.08;;;2.22;;
48875;SDS011;34689;51.644;5.618;2023-03-19T15:50:41;4.30;;;2.22;;
48875;SDS011;34689;51.644;5.618;2023-03-19T15:53:14;4.30;;;2.83;;
48875;SDS011;34689;51.644;5.618;2023-03-19T15:55:43;4.30;;;2.65;;
48875;SDS011;34689;51.644;5.618;2023-03-19T15:58:17;3.20;;;2.30;;
48875;SDS011;34689;51.644;5.618;2023-03-19T16:00:49;3.22;;;2.25;;
48875;SDS011;34689;51.644;5.618;2023-03-19T16:03:18;3.80;;;2.60;;
48875;SDS011;34689;51.644;5.618;2023-03-19T16:08:36;4.78;;;2.53;;
48875;SDS011;34689;51.644;5.618;2023-03-19T16:11:12;4.68;;;2.85;;
48875;SDS011;34689;51.644;5.618;2023-03-19T16:13:39;3.00;;;2.15;;
48875;SDS011;34689;51.644;5.618;2023-03-19T16:18:46;5.20;;;2.70;;
48875;SDS011;34689;51.644;5.618;2023-03-19T16:21:24;4.82;;;2.70;;
48875;SDS011;34689;51.644;5.618;2023-03-19T16:24:08;5.72;;;2.55;;
48875;SDS011;34689;51.644;5.618;2023-03-19T16:26:48;4.15;;;2.45;;
48875;SDS011;34689;51.644;5.618;2023-03-19T16:31:42;6.53;;;3.10;;
48875;SDS011;34689;51.644;5.618;2023-03-19T16:34:52;4.05;;;2.75;;
48875;SDS011;34689;51.644;5.618;2023-03-19T16:37:01;4.68;;;2.60;;
48875;SDS011;34689;51.644;5.618;2023-03-19T16:39:54;4.03;;;2.63;;
48875;SDS011;34689;51.644;5.618;2023-03-19T16:47:54;4.57;;;2.22;;
48875;SDS011;34689;51.644;5.618;2023-03-19T16:50:26;2.35;;;1.85;;
48875;SDS011;34689;51.644;5.618;2023-03-19T16:55:24;3.90;;;2.45;;
48875;SDS011;34689;51.644;5.618;2023-03-19T16:57:55;5.28;;;2.45;;
48875;SDS011;34689;51.644;5.618;2023-03-19T17:00:26;3.85;;;2.67;;
48875;SDS011;34689;51.644;5.618;2023-03-19T17:02:53;4.68;;;3.25;;